Time;durP1;ratioP1;P1;durP2;ratioP2;P2;SDS_P1;SDS_P2;PMS_P1;PMS_P2;Temp;Humidity;BMP_temperature;BMP_pressure;BME280_temperature;BME280_humidity;BME280_pressure;Samples;Min_cycle;Max_cycle;Signal;HPM_P1;HPM_P2
2022/05/30 00:02:00;;;;;;;9.15;4.75;;;13.40;61.90;;;;;;4941919;28;20058;-47
2022/05/30 00:04:28;;;;;;;6.13;4.28;;;13.30;61.20;;;;;;4941538;28;20055;-48
2022/05/30 00:06:55;;;;;;;7.50;4.85;;;13.30;61.20;;;;;;4942748;28;20518;-47
2022/05/30 00:09:23;;;;;;;8.88;5.32;;;13.30;61.40;;;;;;4941213;28;20059;-52
2022/05/30 00:11:51;;;;;;;7.88;4.93;;;13.30;61.50;;;;;;4943801;28;20411;-46
2022/05/30 00:14:20;;;;;;;9.60;6.00;;;13.30;61.60;;;;;;4943487;28;20055;-46
2022/05/30 00:16:47;;;;;;;8.40;5.15;;;13.30;61.80;;;;;;4941750;28;20055;-48
2022/05/30 00:19:15;;;;;;;7.30;4.68;;;13.20;61.70;;;;;;4938855;28;20062;-46
2022/05/30 00:21:44;;;;;;;12.15;5.53;;;13.20;61.80;;;;;;4942284;28;20051;-46
2022/05/30 00:24:11;;;;;;;9.23;5.57;;;13.20;61.80;;;;;;4942768;28;20050;-46
2022/05/30 00:26:39;;;;;;;8.00;5.38;;;13.20;61.80;;;;;;4942164;28;20063;-50
2022/05/30 00:29:08;;;;;;;10.07;5.28;;;13.20;61.90;;;;;;4941049;28;20063;-46
2022/05/30 00:31:36;;;;;;;7.82;5.63;;;13.20;61.90;;;;;;4943600;28;20070;-46
2022/05/30 00:34:05;;;;;;;8.98;5.30;;;13.20;61.90;;;;;;4943892;28;20059;-46
2022/05/30 00:36:32;;;;;;;5.95;4.63;;;13.20;61.80;;;;;;4946784;28;20055;-46
2022/05/30 00:39:00;;;;;;;7.18;5.28;;;13.20;61.90;;;;;;4942328;28;20051;-47
2022/05/30 00:41:27;;;;;;;7.68;5.50;;;13.20;62.00;;;;;;4947464;28;20063;-48
2022/05/30 00:43:55;;;;;;;8.10;5.40;;;13.20;62.00;;;;;;4946277;28;20507;-49
2022/05/30 00:46:22;;;;;;;8.70;5.68;;;13.20;62.30;;;;;;4946013;28;20059;-46
2022/05/30 00:48:54;;;;;;;9.73;5.85;;;13.20;62.00;;;;;;4944797;28;20079;-49
2022/05/30 00:51:25;;;;;;;10.52;5.85;;;13.20;62.10;;;;;;4947629;28;20066;-46
2022/05/30 00:53:55;;;;;;;8.18;5.82;;;13.20;62.00;;;;;;4947127;28;20488;-46
2022/05/30 00:56:24;;;;;;;15.73;6.80;;;13.20;62.10;;;;;;4945340;28;20059;-45
2022/05/30 00:58:52;;;;;;;20.65;7.25;;;13.20;62.10;;;;;;4943530;28;20055;-46
2022/05/30 01:01:21;;;;;;;9.45;7.05;;;13.20;62.20;;;;;;4946324;28;20059;-45
2022/05/30 01:06:39;;;;;;;11.15;7.25;;;13.10;62.40;;;;;;4952506;28;20062;-48
2022/05/30 01:09:12;;;;;;;12.20;8.10;;;13.10;62.50;;;;;;4945718;28;20063;-45
2022/05/30 01:11:55;;;;;;;10.30;7.05;;;13.10;62.70;;;;;;4946754;28;20419;-48
2022/05/30 01:14:24;;;;;;;9.50;6.40;;;13.10;63.00;;;;;;4943841;28;20074;-45
2022/05/30 01:16:52;;;;;;;11.30;7.18;;;13.10;62.90;;;;;;4945427;28;20059;-47
2022/05/30 01:19:36;;;;;;;11.77;8.20;;;13.00;63.00;;;;;;4940966;28;21318;-46
2022/05/30 01:22:24;;;;;;;11.13;7.43;;;13.00;63.20;;;;;;4945516;28;20059;-47
2022/05/30 01:24:58;;;;;;;10.25;7.75;;;13.10;63.20;;;;;;4945310;28;20056;-46
2022/05/30 01:27:36;;;;;;;11.63;7.53;;;13.10;63.20;;;;;;4944673;28;20054;-46
2022/05/30 01:30:08;;;;;;;10.13;7.18;;;13.00;63.10;;;;;;4945196;28;20047;-49
2022/05/30 01:32:35;;;;;;;11.40;7.97;;;13.10;63.20;;;;;;4946567;28;20447;-45
2022/05/30 01:35:03;;;;;;;8.93;6.95;;;13.10;63.20;;;;;;4943694;28;20511;-46
2022/05/30 01:37:30;;;;;;;11.23;7.72;;;13.10;63.20;;;;;;4941194;28;20051;-46
2022/05/30 01:39:58;;;;;;;12.45;8.23;;;13.10;63.20;;;;;;4940182;28;20055;-48
2022/05/30 01:42:25;;;;;;;10.75;7.20;;;13.10;63.20;;;;;;4944934;28;20063;-47
2022/05/30 01:44:53;;;;;;;14.98;8.43;;;13.10;63.20;;;;;;4944517;28;20066;-45
2022/05/30 01:47:22;;;;;;;10.30;7.47;;;13.00;63.20;;;;;;4943482;28;20055;-46
2022/05/30 01:49:50;;;;;;;13.18;8.45;;;13.00;63.20;;;;;;4943675;28;20051;-47
2022/05/30 01:52:17;;;;;;;10.70;7.30;;;13.00;63.10;;;;;;4942170;28;20067;-45
2022/05/30 01:54:45;;;;;;;9.32;7.07;;;13.00;63.20;;;;;;4947167;28;20066;-47
2022/05/30 01:57:12;;;;;;;8.50;6.68;;;13.00;63.20;;;;;;4943425;28;20055;-46
2022/05/30 01:59:39;;;;;;;11.02;7.88;;;13.00;63.30;;;;;;4941501;28;20055;-46
2022/05/30 02:02:09;;;;;;;10.75;7.63;;;13.00;63.30;;;;;;4945334;28;20066;-45
2022/05/30 02:04:38;;;;;;;12.60;8.02;;;13.00;63.50;;;;;;4942578;28;20058;-46
2022/05/30 02:07:06;;;;;;;15.13;9.23;;;13.00;63.40;;;;;;4941671;28;20519;-45
2022/05/30 02:09:34;;;;;;;14.80;9.45;;;13.00;63.20;;;;;;4946495;28;20055;-45
2022/05/30 02:12:01;;;;;;;12.80;8.55;;;13.00;63.10;;;;;;4945160;28;20055;-45
2022/05/30 02:14:29;;;;;;;12.57;9.02;;;13.00;63.00;;;;;;4944314;28;20672;-45
2022/05/30 02:17:01;;;;;;;13.90;9.15;;;12.90;62.90;;;;;;4943669;28;20488;-48
2022/05/30 02:19:29;;;;;;;10.35;8.30;;;13.00;63.00;;;;;;4940611;28;20062;-46
2022/05/30 02:21:57;;;;;;;10.65;8.20;;;12.90;63.00;;;;;;4946002;28;20055;-46
2022/05/30 02:24:25;;;;;;;11.75;7.88;;;12.90;63.10;;;;;;4944288;28;20062;-45
2022/05/30 02:26:53;;;;;;;9.30;7.05;;;12.90;63.10;;;;;;4945984;28;20062;-48
2022/05/30 02:29:21;;;;;;;12.57;7.53;;;12.90;63.20;;;;;;4945125;28;20059;-46
2022/05/30 02:31:49;;;;;;;10.73;7.97;;;12.90;63.40;;;;;;4944821;28;20062;-47
2022/05/30 02:37:02;;;;;;;11.30;7.68;;;12.90;63.60;;;;;;4948362;28;20054;-47
2022/05/30 02:39:31;;;;;;;10.38;8.27;;;12.80;63.60;;;;;;4942820;28;20059;-45
2022/05/30 02:41:59;;;;;;;9.65;7.43;;;12.90;63.80;;;;;;4944741;28;20059;-45
2022/05/30 02:44:27;;;;;;;11.95;8.63;;;12.90;63.80;;;;;;4943745;28;20063;-48
2022/05/30 02:46:57;;;;;;;12.35;8.00;;;12.90;63.90;;;;;;4942817;28;20051;-47
2022/05/30 02:49:26;;;;;;;10.60;8.30;;;12.90;63.90;;;;;;4942569;28;20074;-45
2022/05/30 02:51:54;;;;;;;14.45;9.73;;;13.00;64.00;;;;;;4942435;28;20078;-45
2022/05/30 02:54:23;;;;;;;13.88;10.68;;;13.00;64.10;;;;;;4943344;28;20078;-46
2022/05/30 02:56:52;;;;;;;15.48;11.02;;;13.00;64.10;;;;;;4944548;28;20058;-49
2022/05/30 02:59:20;;;;;;;16.20;11.27;;;13.00;64.00;;;;;;4940902;28;20064;-46
2022/05/30 03:01:48;;;;;;;19.13;13.77;;;13.10;63.90;;;;;;4943536;28;20062;-45
2022/05/30 03:04:16;;;;;;;19.77;13.60;;;13.10;63.80;;;;;;4941537;28;20059;-45
2022/05/30 03:06:44;;;;;;;23.25;15.15;;;13.10;63.60;;;;;;4943732;28;20054;-47
2022/05/30 03:09:13;;;;;;;29.00;15.65;;;13.10;63.40;;;;;;4940828;28;20055;-47
2022/05/30 03:11:42;;;;;;;26.13;15.30;;;13.10;63.20;;;;;;4944705;28;20078;-45
2022/05/30 03:14:10;;;;;;;18.73;13.25;;;13.10;63.10;;;;;;4943498;28;20058;-47
2022/05/30 03:16:37;;;;;;;18.58;13.05;;;13.10;62.80;;;;;;4942869;28;20047;-45
2022/05/30 03:19:05;;;;;;;18.45;12.20;;;13.10;62.80;;;;;;4939206;28;20055;-45
2022/05/30 03:21:32;;;;;;;23.80;15.27;;;13.00;62.60;;;;;;4943171;28;20059;-47
2022/05/30 03:24:00;;;;;;;25.75;16.27;;;13.00;62.60;;;;;;4943950;28;20054;-46
2022/05/30 03:26:27;;;;;;;21.42;15.27;;;13.00;62.40;;;;;;4941030;28;20492;-46
2022/05/30 03:28:56;;;;;;;20.48;14.20;;;13.00;62.30;;;;;;4940290;28;20066;-47
2022/05/30 03:31:23;;;;;;;22.42;14.32;;;12.90;62.30;;;;;;4939608;28;20051;-46
2022/05/30 03:33:51;;;;;;;25.83;16.27;;;12.90;62.30;;;;;;4938607;28;20054;-47
2022/05/30 03:36:22;;;;;;;20.85;13.80;;;12.90;62.20;;;;;;4943159;28;20051;-45
2022/05/30 03:38:50;;;;;;;24.15;16.02;;;12.90;62.30;;;;;;4937816;28;20054;-47
2022/05/30 03:41:18;;;;;;;21.95;14.70;;;12.80;62.10;;;;;;4943526;28;20063;-47
2022/05/30 03:43:46;;;;;;;20.48;14.55;;;12.80;62.20;;;;;;4944215;29;20055;-45
2022/05/30 03:46:16;;;;;;;19.00;13.75;;;12.80;62.30;;;;;;4944939;28;20063;-46
2022/05/30 03:48:43;;;;;;;18.88;13.82;;;12.80;62.30;;;;;;4941413;28;20066;-47
2022/05/30 03:51:14;;;;;;;25.27;14.98;;;12.80;62.20;;;;;;4938392;28;20066;-45
2022/05/30 03:53:42;;;;;;;23.70;15.80;;;12.80;62.20;;;;;;4944412;28;20488;-45
2022/05/30 03:56:11;;;;;;;22.23;15.75;;;12.70;62.10;;;;;;4941507;28;20055;-47
2022/05/30 03:58:38;;;;;;;21.60;14.60;;;12.70;62.20;;;;;;4943233;28;20496;-46
2022/05/30 04:01:07;;;;;;;23.58;14.90;;;12.70;62.20;;;;;;4942332;28;20412;-45
2022/05/30 04:03:39;;;;;;;20.25;14.07;;;12.70;62.30;;;;;;4935563;28;20062;-47
2022/05/30 04:06:07;;;;;;;24.15;14.77;;;12.70;62.40;;;;;;4938929;28;20066;-46
2022/05/30 04:08:35;;;;;;;23.33;15.05;;;12.70;62.40;;;;;;4941854;28;20059;-45
2022/05/30 04:11:03;;;;;;;22.27;14.63;;;12.70;62.50;;;;;;4938604;28;20071;-45
2022/05/30 04:13:32;;;;;;;21.65;15.32;;;12.70;62.60;;;;;;4941861;28;20063;-45
2022/05/30 04:16:09;;;;;;;15.27;11.77;;;12.70;62.70;;;;;;4937649;28;20066;-45
2022/05/30 04:18:39;;;;;;;18.77;13.63;;;12.70;62.90;;;;;;4937519;28;20057;-46
2022/05/30 04:21:08;;;;;;;18.80;13.52;;;12.70;62.90;;;;;;4939866;28;20060;-46
2022/05/30 04:23:35;;;;;;;21.23;13.75;;;12.70;63.20;;;;;;4941107;28;20058;-47
2022/05/30 04:26:05;;;;;;;26.48;17.50;;;12.80;63.50;;;;;;4943242;28;20066;-47
2022/05/30 04:28:32;;;;;;;25.80;17.30;;;12.70;63.60;;;;;;4941471;28;20062;-51
2022/05/30 04:31:00;;;;;;;28.08;18.73;;;12.80;63.80;;;;;;4939850;28;20384;-46
2022/05/30 04:33:27;;;;;;;27.17;18.33;;;12.80;63.90;;;;;;4940562;28;20063;-46
2022/05/30 04:35:57;;;;;;;29.27;19.02;;;12.80;63.80;;;;;;4941491;28;20051;-45
2022/05/30 04:38:24;;;;;;;52.10;20.42;;;12.80;64.50;;;;;;4941883;28;20121;-45
2022/05/30 04:40:52;;;;;;;25.85;17.40;;;12.90;63.70;;;;;;4943662;28;20124;-45
2022/05/30 04:43:19;;;;;;;25.33;17.00;;;12.80;63.60;;;;;;4942094;28;20059;-46
2022/05/30 04:45:47;;;;;;;28.42;18.15;;;12.90;63.80;;;;;;4940672;28;20059;-47
2022/05/30 04:48:14;;;;;;;34.17;21.77;;;12.80;63.70;;;;;;4941128;28;20059;-45
2022/05/30 04:50:42;;;;;;;28.98;19.73;;;12.90;63.80;;;;;;4939238;28;20055;-47
2022/05/30 04:53:13;;;;;;;25.52;16.63;;;12.90;63.70;;;;;;4943356;28;20055;-45
2022/05/30 04:55:40;;;;;;;28.08;17.25;;;12.80;63.70;;;;;;4940716;28;20412;-46
2022/05/30 04:58:08;;;;;;;25.58;17.40;;;12.90;64.10;;;;;;4938598;28;20550;-49
2022/05/30 05:00:35;;;;;;;23.48;16.33;;;12.90;64.40;;;;;;4936160;28;20051;-49
2022/05/30 05:03:03;;;;;;;31.02;18.48;;;12.90;64.40;;;;;;4938739;28;20978;-46
2022/05/30 05:05:30;;;;;;;21.77;14.88;;;12.90;64.50;;;;;;4940184;28;20051;-46
2022/05/30 05:08:05;;;;;;;21.13;14.35;;;13.00;64.60;;;;;;4939019;28;20558;-45
2022/05/30 05:10:48;;;;;;;25.77;15.85;;;13.00;64.70;;;;;;4942156;28;20063;-45
2022/05/30 05:13:15;;;;;;;26.65;16.90;;;13.10;64.50;;;;;;4942616;28;20059;-46
2022/05/30 05:15:43;;;;;;;25.60;16.40;;;13.10;64.10;;;;;;4942081;28;20102;-45
2022/05/30 05:18:10;;;;;;;27.15;16.38;;;13.10;64.10;;;;;;4942578;28;20445;-47
2022/05/30 05:20:39;;;;;;;24.80;15.88;;;13.00;64.20;;;;;;4942242;28;20066;-46
2022/05/30 05:23:06;;;;;;;24.30;15.75;;;13.00;64.30;;;;;;4947806;28;20058;-45
2022/05/30 05:25:39;;;;;;;25.15;16.88;;;13.00;64.30;;;;;;4945843;28;20051;-47
2022/05/30 05:28:07;;;;;;;20.58;14.27;;;13.00;64.40;;;;;;4942250;28;20051;-45
2022/05/30 05:30:35;;;;;;;20.00;13.88;;;13.00;64.40;;;;;;4945258;28;20487;-46
2022/05/30 05:33:03;;;;;;;21.75;13.95;;;13.00;64.70;;;;;;4944987;28;20415;-47
2022/05/30 05:35:30;;;;;;;18.77;12.43;;;13.10;65.00;;;;;;4943079;28;20051;-48
2022/05/30 05:38:00;;;;;;;18.05;12.50;;;13.10;65.00;;;;;;4943476;28;20055;-45
2022/05/30 05:40:28;;;;;;;21.15;11.85;;;13.10;64.90;;;;;;4943137;28;20059;-48
2022/05/30 05:42:57;;;;;;;20.10;11.40;;;13.20;64.70;;;;;;4945380;28;20055;-46
2022/05/30 05:45:25;;;;;;;16.85;10.73;;;13.30;64.60;;;;;;4942506;28;20066;-46
2022/05/30 05:47:52;;;;;;;21.65;10.27;;;13.30;64.40;;;;;;4942131;28;20043;-47
2022/05/30 05:50:20;;;;;;;15.45;10.15;;;13.40;64.50;;;;;;4944120;28;20063;-46
2022/05/30 05:52:47;;;;;;;12.57;8.68;;;13.40;64.20;;;;;;4941922;28;20047;-47
2022/05/30 05:55:15;;;;;;;16.30;8.88;;;13.50;64.20;;;;;;4941947;28;20062;-45
2022/05/30 05:57:42;;;;;;;21.17;10.18;;;13.50;64.00;;;;;;4943222;28;20081;-46
2022/05/30 06:00:13;;;;;;;24.20;10.30;;;13.50;63.70;;;;;;4941193;28;20171;-46
2022/05/30 06:02:41;;;;;;;15.68;8.88;;;13.50;62.90;;;;;;4941282;28;20051;-47
2022/05/30 06:05:09;;;;;;;16.88;8.60;;;13.40;62.70;;;;;;4937072;28;20063;-47
2022/05/30 06:07:38;;;;;;;12.88;9.02;;;13.40;63.10;;;;;;4941808;28;20051;-49
2022/05/30 06:10:08;;;;;;;17.67;9.90;;;13.40;63.40;;;;;;4943717;28;20503;-46
2022/05/30 06:12:37;;;;;;;16.92;10.18;;;13.40;63.50;;;;;;4941827;28;20055;-46
2022/05/30 06:15:05;;;;;;;18.60;10.32;;;13.40;63.10;;;;;;4943435;28;20047;-47
2022/05/30 06:17:34;;;;;;;14.13;9.35;;;13.40;63.10;;;;;;4941496;28;20051;-49
2022/05/30 06:20:01;;;;;;;16.00;9.60;;;13.40;63.10;;;;;;4942558;28;20408;-46
2022/05/30 06:22:29;;;;;;;18.10;9.98;;;13.40;63.30;;;;;;4946961;28;20451;-47
2022/05/30 06:24:56;;;;;;;17.75;9.98;;;13.40;63.30;;;;;;4942188;28;20078;-46
2022/05/30 06:27:24;;;;;;;15.27;10.45;;;13.40;63.40;;;;;;4945421;28;20500;-46
2022/05/30 06:29:52;;;;;;;21.08;10.60;;;13.50;63.20;;;;;;4945600;28;20077;-48
2022/05/30 06:32:20;;;;;;;20.05;9.82;;;13.40;63.00;;;;;;4944252;28;20051;-45
2022/05/30 06:34:48;;;;;;;21.23;11.02;;;13.50;63.00;;;;;;4943114;28;20047;-45
2022/05/30 06:37:16;;;;;;;14.75;9.60;;;13.50;63.00;;;;;;4944140;28;20059;-47
2022/05/30 06:39:43;;;;;;;20.10;10.07;;;13.50;63.10;;;;;;4939863;28;20047;-45
2022/05/30 06:42:12;;;;;;;18.20;10.40;;;13.50;63.00;;;;;;4942200;28;20055;-46
2022/05/30 06:44:39;;;;;;;14.88;8.68;;;13.50;63.00;;;;;;4942497;28;20081;-45
2022/05/30 06:47:08;;;;;;;16.90;9.40;;;13.60;63.10;;;;;;4944228;28;20059;-45
2022/05/30 06:49:36;;;;;;;16.67;9.65;;;13.60;63.40;;;;;;4945118;28;20063;-45
2022/05/30 06:52:06;;;;;;;18.63;9.45;;;13.60;63.20;;;;;;4946678;28;20510;-46
2022/05/30 06:54:33;;;;;;;12.05;8.10;;;13.70;62.90;;;;;;4943963;28;20055;-46
2022/05/30 06:59:45;;;;;;;;;;;13.70;63.00;;;;;;4950668;28;20073;-48
2022/05/30 07:02:12;;;;;;;11.23;8.30;;;13.80;62.90;;;;;;4942134;28;19926;-47
2022/05/30 07:04:39;;;;;;;13.18;7.75;;;13.90;62.40;;;;;;4944352;28;20066;-47
2022/05/30 07:07:08;;;;;;;15.27;7.97;;;13.90;61.70;;;;;;4942745;28;20059;-45
2022/05/30 07:09:36;;;;;;;14.18;7.10;;;14.00;61.90;;;;;;4945611;28;20054;-45
2022/05/30 07:12:05;;;;;;;17.73;9.10;;;14.10;61.80;;;;;;4943441;28;20403;-46
2022/05/30 07:14:33;;;;;;;11.70;7.47;;;14.10;61.10;;;;;;4944724;28;20063;-47
2022/05/30 07:17:00;;;;;;;15.63;7.85;;;14.20;60.90;;;;;;4940359;28;20055;-44
2022/05/30 07:19:28;;;;;;;14.63;8.40;;;14.20;60.90;;;;;;4941248;28;20051;-45
2022/05/30 07:21:55;;;;;;;15.32;8.20;;;14.30;60.30;;;;;;4941280;28;20507;-45
2022/05/30 07:24:24;;;;;;;13.57;7.35;;;14.30;59.80;;;;;;4944434;28;20058;-47
2022/05/30 07:26:51;;;;;;;14.32;7.28;;;14.30;60.10;;;;;;4943172;28;20063;-46
2022/05/30 07:29:19;;;;;;;14.43;7.78;;;14.30;60.40;;;;;;4943360;28;20051;-49
2022/05/30 07:31:46;;;;;;;12.93;7.43;;;14.40;60.30;;;;;;4943156;28;20499;-50
2022/05/30 07:34:14;;;;;;;14.82;7.32;;;14.40;60.30;;;;;;4942409;28;20051;-46
2022/05/30 07:36:41;;;;;;;14.23;7.55;;;14.50;60.50;;;;;;4943820;28;20055;-47
2022/05/30 07:39:09;;;;;;;14.77;7.95;;;14.60;59.80;;;;;;4941146;28;20503;-47
2022/05/30 07:41:39;;;;;;;14.95;7.43;;;14.60;59.50;;;;;;4941735;28;20062;-49
2022/05/30 07:44:07;;;;;;;19.27;8.07;;;14.60;59.90;;;;;;4944582;29;20070;-46
2022/05/30 07:46:34;;;;;;;12.25;8.25;;;14.70;59.40;;;;;;4941227;28;20063;-48
2022/05/30 07:49:03;;;;;;;14.77;7.40;;;14.70;58.80;;;;;;4941292;28;20063;-48
2022/05/30 07:51:30;;;;;;;15.48;8.25;;;14.60;59.10;;;;;;4942198;28;20400;-45
2022/05/30 07:53:58;;;;;;;15.18;7.55;;;14.70;59.00;;;;;;4941181;28;20051;-48
2022/05/30 07:56:27;;;;;;;17.50;8.48;;;14.60;58.60;;;;;;4942499;28;20051;-48
2022/05/30 07:58:56;;;;;;;17.15;8.50;;;14.60;59.10;;;;;;4941796;28;20047;-49
2022/05/30 08:01:24;;;;;;;12.85;7.45;;;14.50;58.60;;;;;;4941705;28;20495;-46
2022/05/30 08:03:52;;;;;;;12.57;6.88;;;14.50;58.50;;;;;;4942534;28;20051;-46
2022/05/30 08:06:22;;;;;;;13.63;6.75;;;14.50;58.80;;;;;;4943790;28;20059;-48
2022/05/30 08:08:49;;;;;;;15.82;7.63;;;14.50;59.10;;;;;;4940493;28;20055;-48
2022/05/30 08:11:17;;;;;;;13.32;7.20;;;14.50;58.70;;;;;;4942647;28;20055;-49
2022/05/30 08:13:46;;;;;;;15.70;7.95;;;14.50;58.00;;;;;;4943645;28;20058;-51
2022/05/30 08:16:16;;;;;;;12.98;7.53;;;14.50;58.10;;;;;;4943098;28;20514;-49
2022/05/30 08:18:44;;;;;;;11.85;6.90;;;14.40;58.10;;;;;;4941027;28;20047;-47
2022/05/30 08:21:11;;;;;;;12.40;7.22;;;14.40;58.50;;;;;;4938053;28;20063;-46
2022/05/30 08:23:39;;;;;;;14.73;6.80;;;14.40;58.80;;;;;;4944733;28;20059;-49
2022/05/30 08:26:06;;;;;;;12.40;6.63;;;14.50;58.60;;;;;;4944638;28;20059;-47
2022/05/30 08:28:34;;;;;;;15.75;5.55;;;14.50;59.10;;;;;;4942908;28;20522;-46
2022/05/30 08:31:02;;;;;;;9.50;6.03;;;14.60;58.50;;;;;;4941408;28;20059;-45
2022/05/30 08:33:31;;;;;;;18.15;10.52;;;14.70;58.40;;;;;;4939773;28;20435;-46
2022/05/30 08:36:01;;;;;;;20.02;7.63;;;14.80;58.60;;;;;;4938097;28;20051;-46
2022/05/30 08:38:33;;;;;;;13.07;5.85;;;14.90;58.60;;;;;;4941407;28;20051;-47
2022/05/30 08:43:51;;;;;;;11.63;5.40;;;15.10;58.20;;;;;;4946970;28;20079;-49
2022/05/30 08:46:36;;;;;;;10.98;4.95;;;15.20;56.50;;;;;;4944538;28;20070;-45
2022/05/30 08:49:14;;;;;;;11.40;5.53;;;15.20;55.30;;;;;;4940719;28;20074;-45
2022/05/30 08:52:03;;;;;;;16.15;4.63;;;15.30;55.90;;;;;;4943679;28;20435;-48
2022/05/30 08:54:40;;;;;;;13.05;4.93;;;15.30;56.00;;;;;;4946913;28;20058;-45
2022/05/30 08:57:15;;;;;;;9.98;5.22;;;15.30;55.80;;;;;;4947248;28;20047;-46
2022/05/30 09:00:04;;;;;;;19.23;5.88;;;15.30;56.10;;;;;;4945531;28;20062;-45
2022/05/30 09:02:37;;;;;;;13.13;5.85;;;15.40;55.90;;;;;;4948249;28;20420;-52
2022/05/30 09:05:09;;;;;;;13.63;6.82;;;15.40;55.40;;;;;;4946948;28;20499;-49
2022/05/30 09:07:41;;;;;;;13.15;6.18;;;15.30;55.40;;;;;;4946156;28;20055;-49
2022/05/30 09:10:14;;;;;;;13.70;6.63;;;15.30;55.90;;;;;;4947680;29;20424;-49
2022/05/30 09:12:46;;;;;;;13.30;6.55;;;15.30;54.90;;;;;;4948004;28;20526;-53
2022/05/30 09:15:20;;;;;;;13.55;6.80;;;15.30;55.40;;;;;;4947309;28;20102;-54
2022/05/30 09:17:52;;;;;;;15.07;5.78;;;15.20;54.40;;;;;;4945866;28;20484;-46
2022/05/30 09:20:24;;;;;;;9.27;5.43;;;15.20;55.30;;;;;;4944257;28;20059;-46
2022/05/30 09:22:52;;;;;;;8.27;5.03;;;15.30;55.60;;;;;;4947844;28;20504;-47
2022/05/30 09:28:08;;;;;;;16.95;7.43;;;15.40;55.40;;;;;;4945289;28;20065;-52
2022/05/30 09:30:45;;;;;;;16.15;6.47;;;15.40;54.30;;;;;;4944370;28;20055;-52
2022/05/30 09:33:22;;;;;;;14.77;6.38;;;15.40;54.40;;;;;;4945231;28;20058;-53
2022/05/30 09:36:11;;;;;;;10.02;5.70;;;15.40;54.10;;;;;;4940639;29;20071;-47
2022/05/30 09:38:42;;;;;;;13.48;5.78;;;15.40;54.40;;;;;;4944108;28;20079;-47
2022/05/30 09:41:16;;;;;;;12.63;4.60;;;15.40;54.20;;;;;;4945495;28;20526;-45
2022/05/30 09:43:46;;;;;;;;;;;15.50;54.50;;;;;;4942334;28;20565;-45
2022/05/30 09:46:22;;;;;;;8.35;4.47;;;15.60;55.00;;;;;;4945425;28;19926;-44
2022/05/30 09:49:04;;;;;;;14.82;5.15;;;15.70;54.80;;;;;;4942436;28;20059;-46
2022/05/30 09:51:37;;;;;;;17.08;5.82;;;15.80;54.00;;;;;;4944928;28;20062;-45
2022/05/30 09:54:06;;;;;;;18.20;5.50;;;15.80;54.00;;;;;;4943159;29;20510;-51
2022/05/30 09:56:39;;;;;;;14.50;5.38;;;15.80;53.80;;;;;;4943256;28;20066;-49
2022/05/30 09:59:19;;;;;;;19.87;5.40;;;15.90;53.20;;;;;;4942979;28;20070;-48
2022/05/30 10:01:51;;;;;;;14.68;4.72;;;15.80;52.60;;;;;;4944431;28;20062;-53
2022/05/30 10:04:31;;;;;;;9.02;4.22;;;15.80;51.80;;;;;;4940609;28;20062;-46
2022/05/30 10:07:11;;;;;;;12.70;4.57;;;15.70;52.10;;;;;;4941682;28;20526;-49
2022/05/30 10:09:50;;;;;;;9.75;4.55;;;15.60;51.60;;;;;;4945361;28;20047;-47
2022/05/30 10:12:29;;;;;;;11.18;4.55;;;15.50;52.20;;;;;;4944774;28;20051;-55
2022/05/30 10:14:57;;;;;;;11.57;4.25;;;15.50;52.90;;;;;;4944700;28;20456;-50
2022/05/30 10:17:31;;;;;;;14.95;4.65;;;15.40;53.20;;;;;;4944314;29;20051;-46
2022/05/30 10:20:00;;;;;;;;;;;15.40;53.50;;;;;;4945045;28;20062;-49
2022/05/30 10:28:41;;;;;;;14.50;4.70;;;15.30;53.00;;;;;;4949035;28;20054;-52
2022/05/30 10:31:22;;;;;;;15.02;4.10;;;15.30;53.00;;;;;;4944663;29;20055;-50
2022/05/30 10:34:21;;;;;;;15.65;4.53;;;15.30;51.70;;;;;;4945279;29;20415;-49
2022/05/30 10:37:04;;;;;;;10.32;3.60;;;15.30;51.50;;;;;;4945106;28;20058;-51
2022/05/30 10:40:03;;;;;;;11.07;3.83;;;15.20;50.60;;;;;;4945447;28;20066;-46
2022/05/30 10:42:39;;;;;;;6.20;3.20;;;15.20;49.90;;;;;;4944583;28;20066;-46
2022/05/30 10:45:13;;;;;;;9.63;3.60;;;15.30;51.30;;;;;;4944174;28;20370;-51
2022/05/30 10:47:45;;;;;;;;;;;15.30;51.90;;;;;;4943749;28;20141;-46
2022/05/30 10:50:18;;;;;;;15.75;3.85;;;15.40;52.00;;;;;;4943976;28;19927;-51
2022/05/30 10:52:50;;;;;;;11.10;4.07;;;15.50;51.30;;;;;;4944925;29;20427;-50
2022/05/30 10:55:25;;;;;;;9.18;4.53;;;15.60;51.90;;;;;;4944971;29;20054;-46
2022/05/30 10:57:56;;;;;;;;;;;15.70;52.10;;;;;;4944040;28;20121;-46
2022/05/30 11:00:29;;;;;;;7.80;3.30;;;15.90;52.20;;;;;;4943454;28;19940;-46
2022/05/30 11:03:04;;;;;;;8.18;3.13;;;16.00;51.10;;;;;;4943782;28;20488;-51
2022/05/30 11:05:40;;;;;;;11.13;2.90;;;16.10;50.50;;;;;;4942729;29;20051;-49
2022/05/30 11:08:14;;;;;;;5.97;2.83;;;16.20;50.70;;;;;;4942150;28;20062;-46
2022/05/30 11:10:47;;;;;;;;;;;16.30;51.30;;;;;;4945391;29;20047;-49
2022/05/30 11:13:44;;;;;;;9.73;3.50;;;16.50;51.20;;;;;;4944603;29;19930;-45
2022/05/30 11:16:27;;;;;;;4.78;2.45;;;16.60;48.90;;;;;;4943104;28;20063;-49
2022/05/30 11:19:01;;;;;;;6.75;2.40;;;16.70;48.70;;;;;;4937764;28;20504;-45
2022/05/30 11:21:35;;;;;;;7.43;2.60;;;16.70;47.10;;;;;;4942073;28;20066;-45
2022/05/30 11:24:04;;;;;;;8.60;3.13;;;16.80;47.70;;;;;;4941908;28;20055;-47
2022/05/30 11:26:55;;;;;;;10.35;2.80;;;16.80;46.70;;;;;;4943417;28;20054;-46
2022/05/30 11:30:09;;;;;;;8.25;3.05;;;16.70;46.00;;;;;;4944430;28;20055;-46
2022/05/30 11:33:10;;;;;;;6.10;2.10;;;16.60;45.70;;;;;;4936213;28;20504;-48
2022/05/30 11:35:44;;;;;;;6.68;1.90;;;16.60;46.50;;;;;;4943603;28;20051;-47
2022/05/30 11:38:39;;;;;;;5.87;2.10;;;16.60;45.60;;;;;;4941623;28;20059;-46
2022/05/30 11:41:19;;;;;;;5.53;2.20;;;16.60;44.50;;;;;;4943655;28;20051;-45
2022/05/30 11:44:10;;;;;;;4.55;2.05;;;16.60;45.40;;;;;;4942089;28;20063;-48
2022/05/30 11:46:54;;;;;;;8.60;2.88;;;16.70;46.50;;;;;;4942903;28;20066;-52
2022/05/30 12:50:44;;;;;;;5.85;3.42;;;17.40;41.70;;;;;;5089658;23;20050;-50
2022/05/30 12:53:13;;;;;;;12.90;4.35;;;17.40;41.80;;;;;;4979432;28;20079;-50
2022/05/30 12:55:44;;;;;;;7.30;3.55;;;17.40;41.10;;;;;;4979824;28;20054;-47
2022/05/30 12:58:14;;;;;;;8.73;3.47;;;17.40;40.00;;;;;;4971972;28;20054;-47
2022/05/30 13:01:09;;;;;;;8.60;3.13;;;17.50;42.70;;;;;;4968560;28;20050;-49
2022/05/30 13:03:44;;;;;;;8.68;3.30;;;17.50;43.90;;;;;;4965782;28;20065;-51
2022/05/30 13:06:22;;;;;;;8.55;3.47;;;17.60;45.00;;;;;;4971951;28;20061;-50
2022/05/30 13:09:19;;;;;;;6.25;2.90;;;17.70;44.70;;;;;;4968865;28;20780;-51
2022/05/30 13:12:14;;;;;;;7.85;3.35;;;17.80;44.70;;;;;;4970182;28;20073;-47
2022/05/30 13:15:13;;;;;;;7.22;3.40;;;17.90;44.70;;;;;;4969228;28;20421;-49
2022/05/30 13:18:00;;;;;;;7.55;3.53;;;18.10;45.00;;;;;;4975019;28;20405;-49
2022/05/30 13:20:31;;;;;;;12.88;5.32;;;18.20;44.40;;;;;;4957885;28;20413;-53
2022/05/30 13:23:03;;;;;;;7.57;4.50;;;18.20;43.00;;;;;;4976767;28;20405;-46
2022/05/30 13:25:33;;;;;;;8.57;4.43;;;18.30;42.60;;;;;;4977796;28;20058;-46
2022/05/30 13:28:06;;;;;;;10.40;4.65;;;18.30;42.20;;;;;;4979055;28;20050;-47
2022/05/30 13:30:34;;;;;;;11.48;4.90;;;18.30;41.70;;;;;;4981049;28;20061;-46
2022/05/30 13:33:09;;;;;;;9.75;4.72;;;18.30;42.40;;;;;;4980764;28;20054;-53
2022/05/30 13:35:39;;;;;;;10.98;5.07;;;18.30;41.90;;;;;;4980247;28;20413;-49
2022/05/30 13:38:12;;;;;;;10.38;5.30;;;18.20;40.70;;;;;;4979197;28;20074;-49
2022/05/30 13:40:40;;;;;;;7.50;4.53;;;18.10;41.00;;;;;;4976974;28;20068;-49
2022/05/30 13:43:10;;;;;;;8.38;4.63;;;18.00;41.50;;;;;;4974246;28;20085;-48
2022/05/30 13:45:40;;;;;;;8.40;5.05;;;18.00;41.60;;;;;;4967576;28;20060;-51
2022/05/30 13:48:10;;;;;;;8.25;4.50;;;18.00;42.00;;;;;;4973925;28;20054;-51
2022/05/30 13:50:50;;;;;;;7.80;4.60;;;18.00;42.60;;;;;;4967556;28;20105;-47
2022/05/30 13:53:22;;;;;;;8.77;4.90;;;18.00;42.80;;;;;;4966981;28;20429;-46
2022/05/30 13:55:55;;;;;;;12.43;5.60;;;18.00;41.90;;;;;;4961554;28;20061;-46
2022/05/30 13:58:24;;;;;;;10.30;5.30;;;18.00;42.00;;;;;;4963010;28;21347;-47
2022/05/30 14:00:53;;;;;;;8.25;5.05;;;18.00;41.80;;;;;;4970864;28;20050;-47
2022/05/30 14:03:24;;;;;;;9.98;5.53;;;18.00;40.90;;;;;;4970627;28;20069;-46
2022/05/30 14:05:52;;;;;;;9.27;5.28;;;17.90;40.30;;;;;;4982197;28;20081;-52
2022/05/30 14:08:29;;;;;;;13.20;5.13;;;17.90;41.30;;;;;;4978513;28;20069;-48
2022/05/30 14:11:02;;;;;;;7.43;4.53;;;17.90;42.60;;;;;;4977654;28;20050;-48
2022/05/30 14:13:36;;;;;;;8.68;4.40;;;17.90;42.60;;;;;;4979611;28;20405;-48
2022/05/30 14:16:06;;;;;;;13.63;5.10;;;17.90;41.90;;;;;;4982509;28;20394;-47
2022/05/30 14:18:46;;;;;;;10.68;5.28;;;18.00;41.90;;;;;;4982855;28;20054;-46
2022/05/30 14:21:23;;;;;;;10.90;5.13;;;18.00;41.30;;;;;;4980578;28;20046;-47